ADDS METAR Data INFO
IDs: Format: Raw Decoded Include TAF

Data at: 0114 UTC 24 Jun 2018

KFFX 240057Z AUTO 32006KT 10SM CLR 20/16 A2973 RMK AO2 T02020159
KFFX 240037Z AUTO 29007KT 10SM CLR 21/16 A2973 RMK AO2 T02120162
KFFX 240017Z AUTO 29006KT 10SM CLR 22/16 A2973 RMK AO2 T02200163
KFFX 232357Z AUTO 29006KT 10SM CLR 23/16 A2973 RMK AO2 T02250161 10248 20223
KFFX 232337Z AUTO 29007KT 10SM CLR 23/16 A2973 RMK AO2 T02280163
KFFX 232317Z AUTO 30010KT 10SM CLR 23/16 A2973 RMK AO2 T02330163
KFFX 232257Z AUTO 29007KT 10SM CLR 24/17 A2973 RMK AO2 T02390169
KFFX 232237Z AUTO 30011G16KT 10SM SCT031 SCT040 SCT046 24/17 A2973 RMK AO2 T02400168
KFFX 232217Z AUTO 29011KT 10SM BKN031 OVC042 24/17 A2973 RMK AO2 T02440174
KFFX 232157Z AUTO 25005KT 10SM BKN029 BKN042 24/17 A2973 RMK AO2 T02400174
KFFX 232137Z AUTO 24006KT 10SM SCT029 25/17 A2972 RMK AO2 T02480173
KFFX 232116Z AUTO 20005KT 10SM SCT042 SCT048 24/18 A2972 RMK AO2 T02400176
KFFX 232056Z AUTO 24004KT 10SM SCT031 BKN041 BKN048 23/17 A2973 RMK AO2 T02310173
KFFX 232036Z AUTO 23005KT 10SM BKN031 OVC037 23/18 A2973 RMK AO2 T02260176
KFFX 232016Z AUTO 24006KT 10SM BKN031 OVC049 23/17 A2973 RMK AO2 T02250172
KFFX 231956Z AUTO 23008KT 10SM OVC031 23/17 A2972 RMK AO2 T02280168
KFFX 231936Z AUTO 00000KT 10SM BKN031 BKN038 OVC045 23/16 A2971 RMK AO2 T02300163
KFFX 231916Z AUTO 00000KT 10SM SCT031 BKN043 OVC048 23/16 A2971 RMK AO2 T02330163
KFFX 231856Z AUTO 00000KT 10SM SCT035 OVC041 23/16 A2971 RMK AO2 T02320164
KFFX 231836Z AUTO 00000KT 10SM OVC035 23/16 A2971 RMK AO2 T02320164
KFFX 231816Z AUTO 00000KT 10SM BKN028 OVC035 23/16 A2970 RMK AO2 T02320164
KFFX 231756Z AUTO 00000KT 10SM OVC028 24/16 A2970 RMK AO2 T02350162 10235 20167
KFFX 231736Z AUTO 00000KT 10SM OVC028 23/16 A2970 RMK AO2 T02250161
KFFX 231716Z AUTO 01004KT 10SM OVC026 23/16 A2970 RMK AO2 T02290164
KFFX 231655Z AUTO 33005KT 10SM SCT024 22/16 A2970 RMK AO2 T02240163
KFFX 231635Z AUTO 36005KT 10SM SCT022 23/16 A2971 RMK AO2 T02250162
KFFX 231615Z AUTO 01003KT 10SM OVC022 22/16 A2972 RMK AO2 T02160162
KFFX 231555Z AUTO 35004KT 10SM SCT020 21/16 A2972 RMK AO2 T02090158
KFFX 231535Z AUTO 35004KT 10SM BKN018 21/16 A2973 RMK AO2 T02080157
KFFX 231515Z AUTO 02005KT 10SM OVC018 21/16 A2972 RMK AO2 T02060159
KFFX 231455Z AUTO 00000KT 10SM BKN018 OVC080 20/16 A2972 RMK AO2 T01970156
KFFX 231435Z AUTO 00000KT 10SM BKN018 BKN080 19/16 A2973 RMK AO2 T01910155
KFFX 231415Z AUTO 03003KT 10SM OVC020 18/15 A2974 RMK AO2 T01810148
KFFX 231355Z AUTO 34003KT 10SM OVC018 18/14 A2975 RMK AO2 T01750142
KFFX 231335Z AUTO 33003KT 10SM OVC018 17/14 A2975 RMK AO2 T01680137
KFFX 231315Z AUTO 33004KT 10SM OVC018 17/14 A2974 RMK AO2 T01670135
KFFX 231259Z AUTO 34003KT 10SM OVC020 17/13 A2974 RMK AO2 T01680134
KFFX 231239Z AUTO 35003KT 10SM SCT013 OVC020 17/13 A2974 RMK AO2 T01670132
KFFX 231219Z AUTO 34005KT 10SM BKN013 OVC022 17/13 A2973 RMK AO2 T01680130
KFFX 231159Z AUTO 36003KT 10SM BKN013 OVC024 17/15 A2973 RMK AO2 T01720150 10184 20170
KFFX 231139Z AUTO 02003KT 10SM OVC024 17/15 A2973 RMK AO2 T01710149
KFFX 231119Z AUTO 07004KT 10SM OVC024 17/15 A2973 RMK AO2 T01700147
KFFX 231059Z AUTO 05004KT 10SM OVC026 17/15 A2973 RMK AO2 T01700145
KFFX 231039Z AUTO 06003KT 10SM OVC026 17/14 A2973 RMK AO2 T01700141
KFFX 231019Z AUTO 04003KT 10SM OVC026 17/14 A2973 RMK AO2 T01700140
KFFX 230958Z AUTO 07003KT 10SM BKN026 OVC060 17/13 A2972 RMK AO2 T01710134
KFFX 230938Z AUTO 08005KT 10SM SCT026 OVC060 17/13 A2971 RMK AO2 T01720129
KFFX 230918Z AUTO 08005KT 10SM SCT018 BKN050 OVC060 17/12 A2970 RMK AO2 T01730123
KFFX 230858Z AUTO 06005KT 10SM BKN018 OVC040 18/12 A2970 RMK AO2 T01750123
KFFX 230838Z AUTO 06006KT 10SM BKN036 OVC041 17/12 A2970 RMK AO2 T01730120
KFFX 230818Z AUTO 07006KT 10SM BKN036 OVC043 18/12 A2971 RMK AO2 T01750122
KFFX 230758Z AUTO 06004KT 10SM BKN023 BKN036 OVC045 18/12 A2972 RMK AO2 T01770120
KFFX 230738Z AUTO 05004KT 10SM OVC021 18/12 A2972 RMK AO2 T01780116
KFFX 230718Z AUTO 06005KT 10SM SCT021 OVC075 18/11 A2973 RMK AO2 T01780113
KFFX 230658Z AUTO 07007KT 10SM SCT020 SCT041 OVC075 18/11 A2973 RMK AO2 T01800110
KFFX 230637Z AUTO 07005KT 10SM SCT020 OVC075 18/10 A2973 RMK AO2 T01800101
KFFX 230617Z AUTO 07006KT 10SM SCT075 18/10 A2974 RMK AO2 T01810095
KFFX 230557Z AUTO 04004KT 10SM SCT044 19/09 A2974 RMK AO2 T01850091 10228 20185 402680150
KFFX 230537Z AUTO 04009KT 10SM BKN046 19/09 A2974 RMK AO2 T01880090
KFFX 230517Z AUTO 05007KT 10SM SCT048 19/09 A2975 RMK AO2 T01870090
KFFX 230457Z AUTO 07007KT 10SM CLR 19/09 A2975 RMK AO2 T01900089
KFFX 230437Z AUTO 07008KT 10SM SCT100 19/09 A2976 RMK AO2 T01930090
KFFX 230417Z AUTO 06008KT 10SM BKN100 20/10 A2976 RMK AO2 T01950095
KFFX 230356Z AUTO 08007KT 10SM BKN110 20/10 A2976 RMK AO2 T01970099
KFFX 230336Z AUTO 07007KT 10SM OVC110 20/11 A2977 RMK AO2 T01980108
KFFX 230316Z AUTO 08006KT 10SM OVC110 20/12 A2977 RMK AO2 T02000115
KFFX 230256Z AUTO 08006KT 10SM OVC110 20/11 A2977 RMK AO2 T02010113
KFFX 230236Z AUTO 06007KT 10SM OVC110 20/11 A2977 RMK AO2 T02020111
KFFX 230216Z AUTO 07011G15KT 10SM OVC100 21/11 A2977 RMK AO2 T02050114
KFFX 230156Z AUTO 08009KT 10SM OVC100 21/12 A2976 RMK AO2 T02050122
KFFX 230136Z AUTO 08009KT 10SM OVC100 21/13 A2976 RMK AO2 T02060127
KFFX 230116Z AUTO 08007KT 10SM OVC100 21/13 A2976 RMK AO2 T02100129
KFFX 230056Z AUTO 08009G15KT 10SM OVC100 22/13 A2976 RMK AO2 T02150127
KFFX 230035Z AUTO 09009KT 10SM BKN100 22/14 A2976 RMK AO2 T02160136
KFFX 230015Z AUTO 09009KT 10SM RA OVC100 22/15 A2975 RMK AO2 T02220149
KFFX 222355Z AUTO 08008KT 10SM OVC100 23/14 A2975 RMK AO2 T02280143 10268 20228
KFFX 222335Z AUTO 08009KT 10SM OVC110 23/15 A2976 RMK AO2 T02310149
KFFX 222315Z AUTO 07008KT 10SM OVC110 23/15 A2975 RMK AO2 T02320148
KFFX 222255Z AUTO 07009KT 10SM BKN110 24/15 A2976 RMK AO2 T02360146
KFFX 222235Z AUTO 09008KT 10SM SCT120 24/14 A2976 RMK AO2 T02350144
KFFX 222215Z AUTO 08012G15KT 10SM CLR 24/15 A2977 RMK AO2 T02420150
KFFX 222155Z AUTO 07007KT 050V110 10SM CLR 25/15 A2977 RMK AO2 T02460149
KFFX 222135Z AUTO 07013G16KT 10SM CLR 26/15 A2978 RMK AO2 T02590152
KFFX 222119Z AUTO 08011KT 10SM CLR 25/15 A2978 RMK AO2 T02460150
KFFX 222059Z AUTO 06012G17KT 10SM CLR 25/15 A2978 RMK AO2 T02510153
KFFX 222039Z AUTO 07011KT 10SM CLR 25/15 A2978 RMK AO2 T02500151
KFFX 222019Z AUTO 06009KT 10SM CLR 26/16 A2978 RMK AO2 T02610155
KFFX 221959Z AUTO 08010KT 10SM CLR 26/15 A2978 RMK AO2 T02620154
KFFX 221939Z AUTO 07008G15KT 10SM CLR 26/15 A2978 RMK AO2 T02610153
KFFX 221919Z AUTO 07012G17KT 10SM CLR 26/15 A2978 RMK AO2 T02600150
KFFX 221859Z AUTO 07010KT 10SM CLR 26/15 A2979 RMK AO2 T02550151
KFFX 221838Z AUTO 04010KT 10SM CLR 25/15 A2980 RMK AO2 T02460150
KFFX 221818Z AUTO 06010KT 10SM CLR 24/14 A2980 RMK AO2 T02360141
KFFX 221758Z AUTO 07009KT 10SM CLR 24/14 A2981 RMK AO2 T02400143 10240 20160
KFFX 221738Z AUTO 07009G15KT 10SM CLR 22/14 A2982 RMK AO2 T02210136
KFFX 221718Z AUTO 08011KT 10SM CLR 22/13 A2983 RMK AO2 T02170130
KFFX 221658Z AUTO 08011G16KT 10SM CLR 21/13 A2984 RMK AO2 T02120125
KFFX 221638Z AUTO 07013G17KT 10SM SCT120 21/12 A2984 RMK AO2 T02110123
KFFX 221618Z AUTO 07011G16KT 10SM OVC120 21/12 A2985 RMK AO2 T02050117
KFFX 221558Z AUTO 07011G16KT 10SM OVC120 20/11 A2985 RMK AO2 T02000114
KFFX 221538Z AUTO 07011G15KT 10SM OVC120 19/11 A2985 RMK AO2 T01870106
KFFX 221517Z AUTO 07009KT 10SM OVC120 18/10 A2985 RMK AO2 T01800101
KFFX 221457Z AUTO 07010G14KT 10SM OVC120 18/10 A2985 RMK AO2 T01750096
KFFX 221437Z AUTO 07007KT 10SM OVC100 17/10 A2986 RMK AO2 T01700099
KFFX 221417Z AUTO 06007KT 10SM OVC110 17/10 A2986 RMK AO2 T01690095
KFFX 221357Z AUTO 07010KT 10SM OVC120 17/10 A2987 RMK AO2 T01670095
KFFX 221336Z AUTO 07010KT 10SM BKN120 17/10 A2986 RMK AO2 T01650095
KFFX 221316Z AUTO 07011KT 10SM -RA SCT120 16/10 A2986 RMK AO2 T01620096